Time;durP1;ratioP1;P1;durP2;ratioP2;P2;SDS_P1;SDS_P2;PMS_P1;PMS_P2;Temp;Humidity;BMP_temperature;BMP_pressure;BME280_temperature;BME280_humidity;BME280_pressure;Samples;Min_cycle;Max_cycle;Signal;HPM_P1;HPM_P2
2022/03/20 00:01:09;;;;;;;35.28;24.13;;;28.80;77.10;;;;;;5065542;28;20391;-58
2022/03/20 00:03:36;;;;;;;34.15;24.13;;;28.80;77.30;;;;;;5081848;28;20031;-58
2022/03/20 00:06:03;;;;;;;35.97;24.10;;;28.80;77.60;;;;;;5085687;28;20096;-52
2022/03/20 00:08:31;;;;;;;33.53;23.15;;;28.80;77.70;;;;;;5085455;28;20095;-52
2022/03/20 00:11:04;;;;;;;35.95;23.33;;;28.80;77.90;;;;;;5085609;28;20031;-49
2022/03/20 00:13:30;;;;;;;37.17;23.38;;;28.80;77.90;;;;;;5085533;28;20035;-48
2022/03/20 00:15:57;;;;;;;37.60;23.63;;;28.70;78.10;;;;;;5085721;28;20177;-49
2022/03/20 00:18:26;;;;;;;31.27;23.40;;;28.70;78.30;;;;;;5085253;28;20023;-53
2022/03/20 00:20:55;;;;;;;34.75;24.33;;;28.70;78.30;;;;;;5085098;28;20216;-52
2022/03/20 00:23:23;;;;;;;29.88;22.55;;;28.70;78.40;;;;;;5083402;28;20093;-51
2022/03/20 00:25:51;;;;;;;34.80;23.27;;;28.70;78.40;;;;;;5085063;28;20164;-52
2022/03/20 00:28:23;;;;;;;31.83;23.23;;;28.70;78.60;;;;;;5084618;28;20056;-52
2022/03/20 00:30:50;;;;;;;36.67;22.65;;;28.60;78.80;;;;;;5083637;28;20040;-51
2022/03/20 00:33:17;;;;;;;36.80;23.88;;;28.60;78.60;;;;;;5085119;28;20023;-48
2022/03/20 00:35:44;;;;;;;32.05;24.88;;;28.60;78.60;;;;;;5084859;28;20021;-54
2022/03/20 00:38:11;;;;;;;32.38;22.70;;;28.60;78.50;;;;;;5084885;28;20091;-51
2022/03/20 00:40:38;;;;;;;33.20;24.00;;;28.60;78.40;;;;;;5084950;28;20036;-49
2022/03/20 00:43:05;;;;;;;35.85;24.08;;;28.60;78.30;;;;;;5083542;28;20028;-52
2022/03/20 00:45:33;;;;;;;32.40;24.38;;;28.50;78.40;;;;;;5084767;28;20028;-51
2022/03/20 00:48:00;;;;;;;30.55;24.08;;;28.50;78.20;;;;;;5084922;28;20277;-49
2022/03/20 00:50:28;;;;;;;31.50;24.33;;;28.50;78.20;;;;;;5084739;28;20050;-54
2022/03/20 00:52:56;;;;;;;31.00;24.08;;;28.50;77.70;;;;;;5084847;28;20017;-49
2022/03/20 00:55:22;;;;;;;30.27;23.52;;;28.50;77.90;;;;;;5084465;28;20052;-52
2022/03/20 00:57:49;;;;;;;32.40;23.50;;;28.50;77.40;;;;;;5084366;28;20026;-51
2022/03/20 01:00:16;;;;;;;30.35;24.15;;;28.50;77.40;;;;;;5085053;28;20020;-48
2022/03/20 01:02:44;;;;;;;32.85;23.58;;;28.50;77.40;;;;;;5084216;28;20027;-50
2022/03/20 01:05:11;;;;;;;25.38;22.23;;;28.40;77.00;;;;;;5084020;28;20020;-55
2022/03/20 01:07:38;;;;;;;27.48;23.15;;;28.40;77.10;;;;;;5084607;28;20040;-48
2022/03/20 01:10:09;;;;;;;38.63;25.05;;;28.40;77.10;;;;;;5084411;28;20033;-48
2022/03/20 01:12:38;;;;;;;31.70;24.65;;;28.40;76.90;;;;;;5084333;28;20035;-48
2022/03/20 01:15:10;;;;;;;35.85;25.45;;;28.40;77.00;;;;;;5084237;28;20031;-47
2022/03/20 01:17:38;;;;;;;32.08;25.10;;;28.40;76.70;;;;;;5084252;28;20036;-51
2022/03/20 01:20:08;;;;;;;30.77;23.25;;;28.40;76.60;;;;;;5084985;28;20044;-48
2022/03/20 01:22:36;;;;;;;27.92;24.45;;;28.40;76.60;;;;;;5084445;28;20020;-49
2022/03/20 01:25:04;;;;;;;31.38;24.58;;;28.40;76.70;;;;;;5084133;28;20062;-51
2022/03/20 01:27:31;;;;;;;28.98;24.15;;;28.40;76.80;;;;;;5084321;28;20036;-50
2022/03/20 01:29:58;;;;;;;30.17;23.83;;;28.40;76.50;;;;;;5084248;28;20074;-49
2022/03/20 01:32:26;;;;;;;28.05;22.95;;;28.30;76.40;;;;;;5084243;28;20105;-51
2022/03/20 01:34:53;;;;;;;28.10;23.77;;;28.40;76.20;;;;;;5084143;28;20084;-47
2022/03/20 01:37:19;;;;;;;31.23;23.90;;;28.40;76.00;;;;;;5083860;28;20301;-47
2022/03/20 01:39:46;;;;;;;31.27;22.63;;;28.40;76.30;;;;;;5083974;28;20304;-50
2022/03/20 01:42:13;;;;;;;44.58;23.83;;;28.40;76.00;;;;;;5084014;28;20106;-46
2022/03/20 01:44:41;;;;;;;30.73;22.83;;;28.40;75.70;;;;;;5083904;28;20016;-49
2022/03/20 01:47:08;;;;;;;33.05;22.73;;;28.30;75.30;;;;;;5083696;28;20056;-51
2022/03/20 01:49:35;;;;;;;30.23;22.42;;;28.40;75.40;;;;;;5082618;28;20036;-47
2022/03/20 01:52:24;;;;;;;29.67;22.33;;;28.30;75.30;;;;;;5083838;28;20028;-51
2022/03/20 01:54:51;;;;;;;30.02;21.67;;;28.30;74.90;;;;;;5083796;28;20100;-51
2022/03/20 01:57:20;;;;;;;30.95;21.63;;;28.30;74.90;;;;;;5083790;28;20036;-49
2022/03/20 01:59:51;;;;;;;26.67;21.38;;;28.30;74.90;;;;;;5083666;28;20043;-48
2022/03/20 02:02:19;;;;;;;32.25;22.20;;;28.30;75.60;;;;;;5082668;28;20027;-48
2022/03/20 02:04:46;;;;;;;26.98;22.60;;;28.30;75.00;;;;;;5083608;28;20115;-52
2022/03/20 02:07:13;;;;;;;23.85;21.30;;;28.30;74.90;;;;;;5083802;28;20044;-48
2022/03/20 02:09:42;;;;;;;27.05;21.85;;;28.30;74.90;;;;;;5083879;28;20028;-55
2022/03/20 02:12:11;;;;;;;24.48;21.70;;;28.30;75.10;;;;;;5083662;28;20024;-53
2022/03/20 02:14:38;;;;;;;28.98;21.15;;;28.30;74.70;;;;;;5084362;28;20016;-52
2022/03/20 02:17:06;;;;;;;25.15;20.73;;;28.20;74.70;;;;;;5087596;28;20028;-49
2022/03/20 02:19:37;;;;;;;23.75;21.10;;;28.20;74.70;;;;;;5087787;28;20250;-49
2022/03/20 02:22:04;;;;;;;25.65;21.52;;;28.20;74.80;;;;;;5087353;28;20055;-50
2022/03/20 02:24:48;;;;;;;41.13;33.53;;;28.20;74.70;;;;;;5087330;28;20030;-53
2022/03/20 02:27:18;;;;;;;54.92;49.58;;;28.20;74.80;;;;;;5087594;28;20028;-51
2022/03/20 02:29:53;;;;;;;43.08;38.78;;;28.20;74.70;;;;;;5087188;28;20020;-53
2022/03/20 02:32:27;;;;;;;34.00;29.10;;;28.20;74.80;;;;;;5087419;28;20032;-49
2022/03/20 02:34:59;;;;;;;31.20;26.00;;;28.20;74.90;;;;;;5087174;28;20375;-49
2022/03/20 02:37:28;;;;;;;28.75;24.30;;;28.20;74.60;;;;;;5087211;28;20262;-51
2022/03/20 02:40:00;;;;;;;28.25;24.08;;;28.20;74.40;;;;;;5087213;28;20024;-47
2022/03/20 02:42:28;;;;;;;26.52;23.15;;;28.20;74.40;;;;;;5087363;28;20040;-53
2022/03/20 02:45:04;;;;;;;35.05;23.58;;;28.20;74.60;;;;;;5087368;28;20117;-49
2022/03/20 02:47:34;;;;;;;26.58;23.75;;;28.10;74.90;;;;;;5087314;28;20043;-47
2022/03/20 02:50:13;;;;;;;30.50;24.90;;;28.10;74.60;;;;;;5086609;28;20040;-46
2022/03/20 02:53:01;;;;;;;32.42;24.50;;;28.20;74.90;;;;;;5087416;28;20044;-52
2022/03/20 02:55:27;;;;;;;41.35;37.00;;;28.10;74.70;;;;;;5086709;28;20047;-53
2022/03/20 02:57:56;;;;;;;44.95;40.15;;;28.20;74.50;;;;;;5087360;28;20032;-53
2022/03/20 03:00:26;;;;;;;37.25;33.45;;;28.20;74.50;;;;;;5086740;28;20028;-52
2022/03/20 03:02:54;;;;;;;35.33;29.83;;;28.10;74.30;;;;;;5086939;28;20024;-50
2022/03/20 03:05:25;;;;;;;32.70;28.48;;;28.10;74.30;;;;;;5086782;28;20028;-47
2022/03/20 03:10:56;;;;;;;61.92;55.80;;;28.10;74.50;;;;;;5086828;28;20064;-48
2022/03/20 03:13:34;;;;;;;65.55;59.13;;;28.10;74.70;;;;;;5086716;28;20024;-53
2022/03/20 03:16:06;;;;;;;49.50;44.28;;;28.10;74.50;;;;;;5086467;28;20305;-53
2022/03/20 03:18:33;;;;;;;41.97;37.83;;;28.10;74.10;;;;;;5086865;28;20255;-52
2022/03/20 03:21:00;;;;;;;38.20;34.00;;;28.10;73.80;;;;;;5086308;28;20039;-51
2022/03/20 03:23:28;;;;;;;34.08;30.55;;;28.00;73.70;;;;;;5086837;28;20253;-46
2022/03/20 03:25:55;;;;;;;36.13;28.55;;;28.10;73.80;;;;;;5085920;28;20020;-50
2022/03/20 03:28:28;;;;;;;30.83;27.08;;;28.00;73.30;;;;;;5086003;28;20071;-53
2022/03/20 03:30:56;;;;;;;28.25;25.13;;;28.00;73.40;;;;;;5086157;28;20035;-52
2022/03/20 03:33:22;;;;;;;27.98;24.70;;;28.00;73.50;;;;;;5086302;28;20048;-56
2022/03/20 03:35:53;;;;;;;28.20;25.05;;;28.00;73.50;;;;;;5086208;28;20092;-48
2022/03/20 03:38:35;;;;;;;26.80;24.10;;;28.00;74.40;;;;;;5086670;28;20028;-51
2022/03/20 03:41:03;;;;;;;24.65;22.13;;;28.00;73.90;;;;;;5086091;28;20275;-53
2022/03/20 03:43:29;;;;;;;26.90;22.98;;;28.00;73.80;;;;;;5086593;28;20356;-52
2022/03/20 03:45:56;;;;;;;25.40;22.75;;;28.00;73.50;;;;;;5086153;28;20058;-51
2022/03/20 03:48:23;;;;;;;25.35;22.92;;;27.90;73.50;;;;;;5086609;28;20044;-49
2022/03/20 03:50:52;;;;;;;24.55;22.00;;;27.90;73.70;;;;;;5085545;28;20264;-53
2022/03/20 03:53:19;;;;;;;35.92;23.08;;;27.90;73.60;;;;;;5086179;28;20116;-51
2022/03/20 03:55:46;;;;;;;28.42;24.02;;;27.90;73.80;;;;;;5084943;28;20084;-61
2022/03/20 03:58:13;;;;;;;27.85;23.35;;;27.90;73.60;;;;;;5086038;28;20095;-56
2022/03/20 04:00:41;;;;;;;27.50;23.92;;;27.80;73.90;;;;;;5089027;28;20020;-47
2022/03/20 04:06:04;;;;;;;30.40;22.52;;;27.80;74.40;;;;;;5088668;23;20261;-46
2022/03/20 04:08:32;;;;;;;42.63;24.02;;;27.80;74.30;;;;;;4968222;28;20366;-53
2022/03/20 04:10:59;;;;;;;28.55;21.98;;;27.90;73.90;;;;;;4957994;29;20108;-48
2022/03/20 04:13:26;;;;;;;27.05;21.85;;;27.80;73.80;;;;;;4958305;28;20048;-51
2022/03/20 04:15:52;;;;;;;35.10;22.15;;;27.80;73.70;;;;;;4950591;29;20406;-49
2022/03/20 04:18:19;;;;;;;24.65;21.92;;;27.80;73.50;;;;;;4957689;28;20046;-48
2022/03/20 04:20:45;;;;;;;27.83;22.20;;;27.80;73.90;;;;;;4968124;28;20043;-55
2022/03/20 04:25:57;;;;;;;26.90;21.85;;;27.90;74.60;;;;;;4960923;29;20034;-47
2022/03/20 04:28:23;;;;;;;28.30;22.98;;;27.90;73.90;;;;;;4953372;29;20079;-56
2022/03/20 04:30:50;;;;;;;27.67;23.88;;;27.90;74.60;;;;;;4947523;29;20028;-50
2022/03/20 04:33:16;;;;;;;29.23;23.83;;;27.90;74.90;;;;;;4947406;29;20019;-39
2022/03/20 04:35:44;;;;;;;29.63;23.90;;;27.90;75.60;;;;;;4947825;29;20083;-45
2022/03/20 04:38:10;;;;;;;29.52;24.33;;;27.80;74.90;;;;;;4964736;28;20014;-43
2022/03/20 04:40:37;;;;;;;29.17;24.40;;;27.80;75.20;;;;;;4976560;28;20053;-56
2022/03/20 04:43:03;;;;;;;26.35;22.92;;;27.90;75.20;;;;;;4974426;28;20030;-48
2022/03/20 04:45:30;;;;;;;26.00;23.10;;;27.90;74.20;;;;;;4970084;28;20306;-51
2022/03/20 04:58:55;;;;;;;27.73;21.80;;;27.90;73.20;;;;;;4969134;28;20041;-53
2022/03/20 05:01:22;;;;;;;23.40;20.90;;;27.90;73.10;;;;;;4973643;28;20099;-52
2022/03/20 05:03:48;;;;;;;26.20;21.15;;;27.90;72.90;;;;;;4976264;28;20042;-50
2022/03/20 05:06:15;;;;;;;25.40;22.40;;;27.90;73.10;;;;;;4974157;28;20050;-51
2022/03/20 05:08:42;;;;;;;23.75;21.00;;;27.90;73.20;;;;;;4975339;28;20342;-47
2022/03/20 05:13:53;;;;;;;22.85;20.52;;;27.90;74.60;;;;;;4972170;28;20085;-47
2022/03/20 05:16:20;;;;;;;26.27;21.00;;;27.80;73.80;;;;;;4974454;28;20022;-49
2022/03/20 05:18:46;;;;;;;23.85;21.15;;;27.80;74.40;;;;;;4969218;28;20082;-49
2022/03/20 05:21:13;;;;;;;23.23;20.83;;;27.80;74.90;;;;;;4970520;28;20039;-49
2022/03/20 05:23:40;;;;;;;25.05;22.00;;;27.80;74.50;;;;;;4972377;28;20024;-48
2022/03/20 05:26:06;;;;;;;24.58;20.90;;;27.80;74.50;;;;;;4965485;28;20082;-52
2022/03/20 05:28:33;;;;;;;25.02;21.60;;;27.80;74.50;;;;;;4972563;28;20038;-52
2022/03/20 05:31:00;;;;;;;24.05;20.65;;;27.80;74.70;;;;;;4972846;28;20079;-47
2022/03/20 05:33:29;;;;;;;23.08;20.65;;;27.80;74.50;;;;;;4973140;28;20206;-54
2022/03/20 05:35:55;;;;;;;24.10;20.85;;;27.90;74.50;;;;;;4971433;28;20086;-49
2022/03/20 05:38:23;;;;;;;28.30;21.85;;;27.90;74.20;;;;;;4976528;28;20116;-43
2022/03/20 05:41:43;;;;;;;24.83;20.33;;;28.00;73.80;;;;;;4969133;28;20029;-57
2022/03/20 05:43:36;;;;;;;51.58;20.42;;;28.10;73.10;;;;;;4968837;28;20094;-53
2022/03/20 05:46:03;;;;;;;23.67;20.13;;;28.10;73.50;;;;;;4953846;28;20031;-53
2022/03/20 05:48:29;;;;;;;23.90;19.65;;;28.20;72.90;;;;;;4977045;28;20033;-52
2022/03/20 05:50:56;;;;;;;23.15;20.67;;;28.10;73.00;;;;;;4980548;28;20035;-56
2022/03/20 05:53:23;;;;;;;24.98;20.88;;;28.10;73.10;;;;;;4966685;29;20082;-54
2022/03/20 05:58:34;;;;;;;24.52;20.33;;;28.10;72.20;;;;;;4965717;29;20026;-56
2022/03/20 06:01:00;;;;;;;22.05;19.75;;;28.10;72.20;;;;;;4966196;29;20039;-56
2022/03/20 06:03:28;;;;;;;26.95;20.20;;;28.20;72.20;;;;;;4966831;28;20031;-54
2022/03/20 06:05:55;;;;;;;25.35;19.40;;;28.20;72.20;;;;;;4985143;28;20047;-56
2022/03/20 06:08:22;;;;;;;23.90;19.35;;;28.20;71.80;;;;;;4985540;28;20031;-56
2022/03/20 06:10:50;;;;;;;24.35;19.77;;;28.10;71.90;;;;;;4986675;28;20098;-53
2022/03/20 06:13:16;;;;;;;21.40;19.27;;;28.20;71.50;;;;;;4986245;28;20086;-52
2022/03/20 06:15:47;;;;;;;25.08;19.77;;;28.20;71.20;;;;;;4986773;28;20355;-53
2022/03/20 06:18:13;;;;;;;23.67;18.48;;;28.10;71.20;;;;;;4986476;28;20025;-47
2022/03/20 06:20:40;;;;;;;24.60;17.88;;;28.10;71.00;;;;;;4987661;28;20329;-51
2022/03/20 06:23:06;;;;;;;21.35;19.05;;;28.10;71.20;;;;;;4986950;28;20025;-54
2022/03/20 06:25:33;;;;;;;21.80;18.50;;;28.10;71.30;;;;;;4988020;28;20043;-51
2022/03/20 06:28:01;;;;;;;20.70;18.58;;;28.10;71.50;;;;;;4987200;28;20230;-54
2022/03/20 06:30:32;;;;;;;20.70;18.40;;;28.00;71.10;;;;;;4982435;28;20023;-53
2022/03/20 06:32:59;;;;;;;21.15;18.23;;;28.00;71.30;;;;;;4967484;29;20035;-54
2022/03/20 06:35:25;;;;;;;21.23;18.48;;;28.00;71.30;;;;;;4976748;28;20018;-49
2022/03/20 06:37:55;;;;;;;22.33;19.55;;;27.90;71.40;;;;;;4987283;28;20042;-52
2022/03/20 06:40:22;;;;;;;26.40;18.55;;;27.90;71.70;;;;;;4984549;28;20027;-51
2022/03/20 06:42:49;;;;;;;21.02;18.83;;;27.90;71.90;;;;;;4968059;29;20019;-51
2022/03/20 06:45:19;;;;;;;20.95;17.67;;;27.90;71.90;;;;;;4968144;29;20071;-46
2022/03/20 06:47:46;;;;;;;22.75;18.60;;;27.90;71.90;;;;;;4967871;29;20019;-46
2022/03/20 06:50:13;;;;;;;22.95;19.27;;;27.80;71.80;;;;;;4968136;29;20102;-50
2022/03/20 06:52:41;;;;;;;20.60;17.90;;;27.80;71.80;;;;;;4967716;29;20057;-48
2022/03/20 06:55:12;;;;;;;25.27;18.20;;;27.80;71.80;;;;;;4967645;29;20019;-49
2022/03/20 06:57:44;;;;;;;21.02;17.17;;;27.80;71.60;;;;;;4967605;29;20031;-48
2022/03/20 07:00:12;;;;;;;23.52;17.85;;;27.80;71.70;;;;;;4967853;29;20061;-51
2022/03/20 07:02:39;;;;;;;20.80;18.45;;;27.80;71.80;;;;;;4967452;28;20027;-51
2022/03/20 07:05:06;;;;;;;22.02;17.77;;;27.80;71.80;;;;;;4969101;28;20062;-51
2022/03/20 07:07:35;;;;;;;21.80;17.13;;;27.80;71.90;;;;;;4986819;28;20245;-53
2022/03/20 07:10:03;;;;;;;21.13;17.08;;;27.70;71.80;;;;;;4987054;28;20086;-55
2022/03/20 07:12:29;;;;;;;19.65;17.35;;;27.70;72.00;;;;;;4986788;28;20023;-56
2022/03/20 07:14:57;;;;;;;23.35;17.65;;;27.70;71.90;;;;;;4986898;28;20099;-57
2022/03/20 07:17:24;;;;;;;19.63;16.90;;;27.70;71.90;;;;;;4986678;28;20015;-56
2022/03/20 07:19:51;;;;;;;20.25;17.52;;;27.70;71.90;;;;;;4987228;28;20218;-56
2022/03/20 07:22:19;;;;;;;19.63;17.15;;;27.70;72.00;;;;;;4986978;28;20045;-49
2022/03/20 07:24:46;;;;;;;20.58;16.35;;;27.70;72.10;;;;;;4987347;28;20042;-51
2022/03/20 07:29:58;;;;;;;18.92;16.92;;;27.60;71.70;;;;;;4986474;28;20093;-51
2022/03/20 07:32:25;;;;;;;20.50;16.50;;;27.60;71.90;;;;;;4967552;29;20030;-49
2022/03/20 07:34:52;;;;;;;18.60;16.55;;;27.60;71.70;;;;;;4967750;29;20027;-50
2022/03/20 07:37:21;;;;;;;19.52;16.52;;;27.60;71.80;;;;;;4967582;29;20025;-46
2022/03/20 07:39:50;;;;;;;19.83;16.92;;;27.50;72.40;;;;;;4967814;29;20102;-47
2022/03/20 07:42:18;;;;;;;19.20;15.77;;;27.60;72.10;;;;;;4967349;29;20019;-48
2022/03/20 07:44:46;;;;;;;20.35;16.98;;;27.50;72.10;;;;;;4967695;29;20295;-51
2022/03/20 07:47:20;;;;;;;18.00;16.08;;;27.50;72.30;;;;;;4967388;29;20023;-50
2022/03/20 07:49:48;;;;;;;19.60;16.05;;;27.50;72.10;;;;;;4967514;29;20037;-46
2022/03/20 07:52:15;;;;;;;18.50;15.90;;;27.50;72.50;;;;;;4967205;29;20027;-48
2022/03/20 07:54:42;;;;;;;24.88;15.93;;;27.50;72.50;;;;;;4967326;29;20039;-51
2022/03/20 07:57:09;;;;;;;20.92;16.63;;;27.50;72.50;;;;;;4983870;28;20035;-51
2022/03/20 07:59:36;;;;;;;18.42;16.42;;;27.50;72.70;;;;;;4986712;28;20093;-53
2022/03/20 08:02:03;;;;;;;17.48;15.75;;;27.40;73.20;;;;;;4986370;28;20062;-51
2022/03/20 08:04:30;;;;;;;18.13;15.95;;;27.40;73.30;;;;;;4986147;28;20077;-58
2022/03/20 08:06:57;;;;;;;20.05;17.00;;;27.40;73.60;;;;;;4986394;28;20027;-54
2022/03/20 08:09:27;;;;;;;17.83;15.52;;;27.40;73.80;;;;;;4986338;28;20081;-50
2022/03/20 08:11:55;;;;;;;18.98;16.17;;;27.40;73.80;;;;;;4986174;28;20210;-53
2022/03/20 08:14:23;;;;;;;21.85;16.80;;;27.40;73.90;;;;;;4985833;28;20043;-51
2022/03/20 08:16:51;;;;;;;22.65;16.90;;;27.30;74.30;;;;;;4985977;28;20385;-51
2022/03/20 08:19:19;;;;;;;20.98;16.73;;;27.30;74.20;;;;;;4986105;28;20038;-53
2022/03/20 08:21:49;;;;;;;21.70;16.17;;;27.30;74.40;;;;;;4953843;29;20230;-51
2022/03/20 08:24:17;;;;;;;19.05;16.98;;;27.30;73.90;;;;;;4966653;29;20031;-50
2022/03/20 08:26:44;;;;;;;18.95;16.50;;;27.30;73.80;;;;;;4966719;29;20271;-47
2022/03/20 08:29:12;;;;;;;20.88;17.45;;;27.30;73.60;;;;;;4966702;29;20027;-50
2022/03/20 08:31:44;;;;;;;21.48;16.67;;;27.30;73.50;;;;;;4966474;29;20035;-52
2022/03/20 08:34:11;;;;;;;20.65;18.45;;;27.30;73.80;;;;;;4966563;29;20224;-52
2022/03/20 08:36:38;;;;;;;19.65;17.65;;;27.30;74.40;;;;;;4966613;29;20022;-48
2022/03/20 08:39:05;;;;;;;22.90;18.27;;;27.30;74.40;;;;;;4966210;29;20128;-47
2022/03/20 08:41:32;;;;;;;20.25;18.10;;;27.20;74.30;;;;;;4982496;28;20047;-47
2022/03/20 08:43:58;;;;;;;24.55;18.52;;;27.20;74.30;;;;;;4985787;28;20103;-50
2022/03/20 08:46:25;;;;;;;20.05;17.25;;;27.20;74.20;;;;;;4985503;28;20031;-50
2022/03/20 08:48:52;;;;;;;25.33;17.85;;;27.20;74.20;;;;;;4985655;28;20015;-54
2022/03/20 08:51:18;;;;;;;21.40;17.88;;;27.20;74.40;;;;;;4974979;28;20030;-51
2022/03/20 08:53:45;;;;;;;20.30;17.45;;;27.10;74.50;;;;;;4965952;29;20043;-51
2022/03/20 08:56:11;;;;;;;20.20;17.33;;;27.20;74.90;;;;;;4966083;29;20152;-51
2022/03/20 08:58:38;;;;;;;21.67;18.23;;;27.10;74.70;;;;;;4966128;29;20115;-53
2022/03/20 09:01:06;;;;;;;23.77;18.75;;;27.10;75.20;;;;;;4965932;29;20023;-51
2022/03/20 09:03:32;;;;;;;24.17;18.45;;;27.20;74.80;;;;;;4965932;29;20087;-54
2022/03/20 09:05:59;;;;;;;21.92;17.77;;;27.10;75.10;;;;;;4965832;28;20247;-47
2022/03/20 09:08:26;;;;;;;22.52;18.20;;;27.10;74.90;;;;;;4965622;29;20099;-51
2022/03/20 09:10:52;;;;;;;21.38;18.55;;;27.10;75.50;;;;;;4965956;28;20353;-54
2022/03/20 09:13:19;;;;;;;20.23;17.75;;;27.10;75.90;;;;;;4984229;28;20026;-51
2022/03/20 09:15:45;;;;;;;19.38;17.30;;;27.10;75.90;;;;;;4965568;29;20310;-51
2022/03/20 09:20:57;;;;;;;24.50;17.67;;;27.00;76.20;;;;;;4965153;29;20279;-53
2022/03/20 09:23:23;;;;;;;21.48;17.58;;;27.10;75.40;;;;;;4965144;29;20027;-50
2022/03/20 09:25:51;;;;;;;18.00;16.10;;;27.00;74.90;;;;;;4964371;28;20311;-51
2022/03/20 09:28:18;;;;;;;18.35;16.35;;;27.10;74.60;;;;;;4965053;29;20027;-50
2022/03/20 09:30:44;;;;;;;20.58;16.42;;;27.10;74.80;;;;;;4965268;29;20027;-51
2022/03/20 09:33:11;;;;;;;22.42;15.98;;;27.10;74.70;;;;;;4963756;29;20322;-53
2022/03/20 09:35:38;;;;;;;21.55;16.70;;;27.10;74.40;;;;;;4963741;29;20098;-53
2022/03/20 09:38:07;;;;;;;19.80;15.70;;;27.10;74.50;;;;;;4963520;29;20035;-48
2022/03/20 09:40:38;;;;;;;21.88;15.07;;;27.10;74.60;;;;;;4967929;28;20029;-51
2022/03/20 09:43:05;;;;;;;26.38;16.17;;;27.10;74.70;;;;;;4983071;28;20275;-53
2022/03/20 09:45:33;;;;;;;18.10;15.85;;;27.20;74.90;;;;;;4983494;28;20042;-52
2022/03/20 09:48:00;;;;;;;20.20;15.63;;;27.20;75.20;;;;;;4983359;28;20050;-51
2022/03/20 09:50:27;;;;;;;17.50;15.10;;;27.20;75.30;;;;;;4980204;28;20035;-57
2022/03/20 09:52:53;;;;;;;18.70;14.25;;;27.20;75.50;;;;;;4963718;29;20195;-51
2022/03/20 09:55:20;;;;;;;20.45;15.07;;;27.20;75.60;;;;;;4964130;29;20327;-51
2022/03/20 09:57:46;;;;;;;17.63;14.63;;;27.20;75.80;;;;;;4963697;29;20019;-52
2022/03/20 10:00:16;;;;;;;15.85;13.63;;;27.20;75.80;;;;;;4963989;29;20035;-56
2022/03/20 10:02:43;;;;;;;18.00;14.23;;;27.20;76.10;;;;;;4963647;29;20043;-54
2022/03/20 10:05:10;;;;;;;19.33;14.32;;;27.30;76.30;;;;;;4964398;28;20058;-60
2022/03/20 10:07:43;;;;;;;19.38;14.73;;;27.30;76.40;;;;;;4965172;29;20036;-55
2022/03/20 10:10:09;;;;;;;19.02;14.40;;;27.30;76.70;;;;;;4965409;29;20090;-58
2022/03/20 10:12:40;;;;;;;22.90;13.77;;;27.30;76.80;;;;;;4965053;29;20031;-51
2022/03/20 10:15:11;;;;;;;19.33;14.23;;;27.30;76.90;;;;;;4966153;28;20042;-51
2022/03/20 10:17:39;;;;;;;21.17;14.52;;;27.30;77.20;;;;;;4984397;28;20105;-51
2022/03/20 10:20:20;;;;;;;20.65;14.13;;;27.30;77.30;;;;;;4984688;28;20219;-52
2022/03/20 10:22:46;;;;;;;20.40;14.43;;;27.30;77.50;;;;;;4984136;28;20281;-51
2022/03/20 10:25:17;;;;;;;21.17;14.32;;;27.30;77.80;;;;;;4984621;28;20039;-51
2022/03/20 10:28:00;;;;;;;17.55;13.85;;;27.30;77.90;;;;;;4984381;28;20203;-51
2022/03/20 10:30:27;;;;;;;17.05;14.10;;;27.30;77.90;;;;;;4984649;28;20314;-53
2022/03/20 10:32:53;;;;;;;19.23;14.25;;;27.30;77.90;;;;;;4984392;28;20027;-54
2022/03/20 10:35:20;;;;;;;20.90;14.13;;;27.30;77.90;;;;;;4984530;28;20042;-46
2022/03/20 10:37:55;;;;;;;17.58;13.48;;;27.30;78.00;;;;;;4987775;28;20021;-52
2022/03/20 10:40:29;;;;;;;19.67;14.40;;;27.30;78.00;;;;;;4985237;28;20053;-51
2022/03/20 10:43:11;;;;;;;18.52;14.20;;;27.30;78.00;;;;;;4968466;29;20071;-48
2022/03/20 10:46:02;;;;;;;20.47;13.67;;;27.30;78.20;;;;;;4968861;29;20370;-47
2022/03/20 10:48:35;;;;;;;20.48;13.63;;;27.30;78.30;;;;;;4968233;29;20019;-54
2022/03/20 10:51:03;;;;;;;18.10;14.35;;;27.30;78.40;;;;;;4970566;28;20042;-51
2022/03/20 10:53:30;;;;;;;17.50;13.90;;;27.30;78.60;;;;;;4968236;29;20023;-50
2022/03/20 10:56:09;;;;;;;15.88;13.52;;;27.30;78.90;;;;;;4968234;28;20031;-53
2022/03/20 10:58:40;;;;;;;21.83;14.52;;;27.30;78.70;;;;;;4968495;29;20027;-52
2022/03/20 11:01:08;;;;;;;17.63;13.90;;;27.20;78.90;;;;;;4968198;29;20042;-53
2022/03/20 11:03:38;;;;;;;21.75;14.05;;;27.20;78.90;;;;;;4968421;29;20038;-52
2022/03/20 11:06:10;;;;;;;22.95;16.92;;;27.20;79.60;;;;;;4967985;28;20118;-55
2022/03/20 11:08:37;;;;;;;23.03;15.00;;;27.20;79.40;;;;;;4968124;29;20035;-59
2022/03/20 11:11:05;;;;;;;18.40;14.52;;;27.20;79.30;;;;;;4968183;29;20290;-56
2022/03/20 11:13:35;;;;;;;20.70;14.88;;;27.20;79.10;;;;;;4968002;29;20026;-56
2022/03/20 11:16:05;;;;;;;23.73;16.38;;;27.20;78.60;;;;;;4968272;29;20103;-56
2022/03/20 11:18:35;;;;;;;22.67;16.35;;;27.20;78.80;;;;;;4968126;29;20031;-57
2022/03/20 11:21:04;;;;;;;20.38;17.27;;;27.20;78.60;;;;;;4975462;28;20058;-51
2022/03/20 11:23:33;;;;;;;23.10;17.38;;;27.20;78.30;;;;;;4987299;28;20069;-52
2022/03/20 11:26:01;;;;;;;21.45;17.10;;;27.20;78.30;;;;;;4987301;28;20054;-52
2022/03/20 11:28:31;;;;;;;22.23;18.65;;;27.20;78.30;;;;;;4986988;28;20097;-53
2022/03/20 11:30:58;;;;;;;21.02;18.30;;;27.20;78.40;;;;;;4987289;28;20083;-49
2022/03/20 11:33:25;;;;;;;26.42;19.02;;;27.20;78.60;;;;;;4987064;28;20055;-52
2022/03/20 11:35:52;;;;;;;26.63;18.83;;;27.20;78.80;;;;;;4986946;28;20034;-55
2022/03/20 11:38:24;;;;;;;25.10;19.73;;;27.20;78.90;;;;;;4987190;28;20110;-52
2022/03/20 11:41:09;;;;;;;24.70;18.63;;;27.20;78.90;;;;;;4987000;28;20041;-55
2022/03/20 11:43:44;;;;;;;21.95;18.13;;;27.20;79.10;;;;;;4987078;28;20031;-53
2022/03/20 11:46:15;;;;;;;26.65;18.67;;;27.20;79.60;;;;;;4986506;28;20031;-52
2022/03/20 11:48:42;;;;;;;25.63;18.77;;;27.20;79.90;;;;;;4985941;28;20334;-53
2022/03/20 11:51:11;;;;;;;26.63;18.67;;;27.10;80.30;;;;;;4986397;28;20023;-55
2022/03/20 11:53:40;;;;;;;22.00;18.55;;;27.10;80.60;;;;;;4986131;28;20034;-57
2022/03/20 11:56:07;;;;;;;21.23;17.35;;;27.10;80.90;;;;;;4986780;28;20040;-64
2022/03/20 11:58:36;;;;;;;23.38;17.52;;;27.10;81.20;;;;;;4985702;28;20030;-53
2022/03/20 12:01:09;;;;;;;24.42;17.67;;;27.10;81.90;;;;;;4985120;28;20333;-54
2022/03/20 12:03:50;;;;;;;23.70;17.35;;;27.10;81.80;;;;;;4985185;28;20037;-57
2022/03/20 12:06:49;;;;;;;22.10;17.13;;;27.10;82.20;;;;;;4984958;28;20118;-53
2022/03/20 12:10:00;;;;;;;25.83;17.30;;;27.10;82.20;;;;;;4968440;28;20046;-54
2022/03/20 12:12:48;;;;;;;24.42;17.90;;;27.00;83.10;;;;;;4984942;28;20042;-56
2022/03/20 12:15:19;;;;;;;26.30;18.73;;;27.00;83.70;;;;;;4986899;28;20211;-55
2022/03/20 12:17:57;;;;;;;22.67;17.90;;;26.90;83.90;;;;;;4986346;28;20044;-52
2022/03/20 12:20:52;;;;;;;26.75;16.83;;;26.90;84.20;;;;;;4986687;28;20298;-54
2022/03/20 12:23:43;;;;;;;23.65;17.88;;;26.70;84.90;;;;;;4986090;28;20033;-52
2022/03/20 12:26:38;;;;;;;20.80;17.08;;;26.70;84.30;;;;;;4985947;28;20027;-55
2022/03/20 12:29:32;;;;;;;23.25;18.35;;;26.70;84.30;;;;;;4986013;28;20085;-54
2022/03/20 12:32:15;;;;;;;24.55;20.83;;;26.70;84.00;;;;;;4986048;28;20046;-53
2022/03/20 12:34:43;;;;;;;29.67;23.40;;;26.70;83.60;;;;;;4986123;28;20086;-52
2022/03/20 12:37:49;;;;;;;27.50;22.88;;;26.80;83.30;;;;;;4985979;28;20042;-51
2022/03/20 12:40:30;;;;;;;30.50;24.45;;;26.80;83.80;;;;;;4985721;28;20034;-53
2022/03/20 12:43:10;;;;;;;35.58;26.80;;;26.80;83.10;;;;;;4985830;28;20085;-52
2022/03/20 12:45:45;;;;;;;33.38;26.10;;;26.80;83.40;;;;;;4986302;28;20298;-52
2022/03/20 12:48:20;;;;;;;31.67;26.10;;;26.80;83.50;;;;;;4985802;28;20023;-53
2022/03/20 12:50:49;;;;;;;36.33;27.05;;;26.80;83.30;;;;;;4977136;28;20057;-56
2022/03/20 12:53:21;;;;;;;31.23;26.38;;;26.80;83.90;;;;;;4969641;28;20090;-48
2022/03/20 12:55:54;;;;;;;;;;;26.80;84.40;;;;;;4967018;29;20066;-53
2022/03/20 12:58:22;;;;;;;30.65;25.67;;;26.80;84.60;;;;;;4966179;28;19977;-53
2022/03/20 13:00:49;;;;;;;31.98;25.23;;;26.80;84.70;;;;;;4966709;29;20039;-52
2022/03/20 13:03:17;;;;;;;31.08;25.33;;;26.70;84.80;;;;;;4966036;29;20094;-53
2022/03/20 13:05:58;;;;;;;31.02;23.90;;;26.70;84.90;;;;;;4966060;28;20051;-52
2022/03/20 13:08:36;;;;;;;30.90;22.15;;;26.70;84.90;;;;;;4973963;28;20022;-52
2022/03/20 13:14:05;;;;;;;28.30;22.70;;;26.70;85.30;;;;;;4982419;28;20050;-55